createdAt,value
2023-05-10T00:00:31.051Z,99982.00
2023-05-10T00:02:35.845Z,99981.16
2023-05-10T00:04:38.813Z,99989.94
2023-05-10T00:06:41.788Z,99983.00
2023-05-10T00:08:44.577Z,99981.34
2023-05-10T00:10:47.503Z,99990.91
2023-05-10T00:12:50.549Z,99986.56
2023-05-10T00:14:53.410Z,99987.44
2023-05-10T00:16:56.387Z,99985.69
2023-05-10T00:19:00.752Z,99986.50
2023-05-10T00:21:03.590Z,99991.72
2023-05-10T00:23:06.554Z,99996.97
2023-05-10T00:25:10.990Z,99989.97
2023-05-10T00:27:13.792Z,99993.47
2023-05-10T00:29:16.618Z,99992.63
2023-05-10T00:31:19.428Z,99986.59
2023-05-10T00:33:22.234Z,99980.47
2023-05-10T00:35:26.965Z,99980.44
2023-05-10T00:37:30.157Z,99983.03
2023-05-10T00:39:32.973Z,99969.06
2023-05-10T00:41:35.883Z,99986.53
2023-05-10T00:43:40.919Z,99986.56
2023-05-10T00:45:43.999Z,99987.44
2023-05-10T00:47:47.214Z,99986.59
2023-05-10T00:49:50.162Z,99987.53
2023-05-10T00:51:54.458Z,99990.13
2023-05-10T00:53:57.777Z,99995.38
2023-05-10T00:56:02.226Z,99996.28
2023-05-10T00:58:05.302Z,99997.16
2023-05-10T01:00:09.344Z,99992.81
2023-05-10T01:02:12.770Z,99992.88
2023-05-10T01:04:17.224Z,99996.41
2023-05-10T01:06:20.097Z,99989.44
2023-05-10T01:08:24.432Z,99992.97
2023-05-10T01:10:27.471Z,99988.66
2023-05-10T01:12:30.553Z,99993.88
2023-05-10T01:14:33.482Z,99999.97
2023-05-10T01:16:39.511Z,99993.88
2023-05-10T01:18:43.933Z,99999.13
2023-05-10T01:20:50.606Z,99995.63
2023-05-10T01:23:16.175Z,99992.13
2023-05-10T01:25:38.165Z,99989.63
2023-05-10T01:28:03.412Z,100000.09
2023-05-10T01:30:45.449Z,100002.75
2023-05-10T01:32:57.140Z,100000.09
2023-05-10T01:35:04.678Z,99999.19
2023-05-10T01:37:11.252Z,100001.78
2023-05-10T01:39:19.858Z,100000.88
2023-05-10T01:41:30.184Z,100002.63
2023-05-10T01:43:36.892Z,100016.63
2023-05-10T01:45:49.331Z,100019.19
2023-05-10T01:48:00.529Z,100014.84
2023-05-10T01:50:06.653Z,100014.91
2023-05-10T01:52:13.862Z,100016.66
2023-05-10T01:54:19.630Z,100024.53
2023-05-10T01:56:28.005Z,100026.22
2023-05-10T01:58:33.878Z,100016.69
2023-05-10T02:00:38.626Z,100021.06
2023-05-10T02:02:44.138Z,100029.81
2023-05-10T02:04:51.511Z,100023.75
2023-05-10T02:06:56.007Z,100029.81
2023-05-10T02:08:59.428Z,100021.13
2023-05-10T02:11:04.634Z,100028.06
2023-05-10T02:13:08.383Z,100016.72
2023-05-10T02:15:13.659Z,100022.88
2023-05-10T02:17:17.400Z,100022.88
2023-05-10T02:19:22.238Z,100023.81
2023-05-10T02:21:27.337Z,100026.41
2023-05-10T02:23:30.589Z,100027.28
2023-05-10T02:25:34.631Z,100025.50
2023-05-10T02:27:39.151Z,100022.06
2023-05-10T02:29:42.924Z,100032.56
2023-05-10T02:31:47.527Z,100037.84
2023-05-10T02:33:51.158Z,100038.75
2023-05-10T02:35:55.327Z,100043.13
2023-05-10T02:38:01.126Z,100040.50
2023-05-10T02:40:07.767Z,100037.88
2023-05-10T02:42:11.864Z,100037.03
2023-05-10T02:44:16.979Z,100036.16
2023-05-10T02:46:20.170Z,100034.41
2023-05-10T02:48:23.153Z,100042.28
2023-05-10T02:50:29.900Z,100042.25
2023-05-10T02:52:46.424Z,100037.06
2023-05-10T02:54:54.385Z,100034.41
2023-05-10T02:57:00.457Z,100031.81
2023-05-10T02:59:03.507Z,100038.78
2023-05-10T03:01:08.383Z,100043.13
2023-05-10T03:03:11.208Z,100048.34
2023-05-10T03:05:14.080Z,100050.97
2023-05-10T03:07:17.996Z,100052.69
2023-05-10T03:09:22.154Z,100050.09
2023-05-10T03:11:32.054Z,100058.00
2023-05-10T03:13:47.950Z,100055.34
2023-05-10T03:15:59.987Z,100057.97
2023-05-10T03:18:08.843Z,100051.00
2023-05-10T03:20:15.628Z,100057.09
2023-05-10T03:22:26.404Z,100055.38
2023-05-10T03:24:30.339Z,100057.13
2023-05-10T03:26:38.125Z,100052.78
2023-05-10T03:28:47.699Z,100058.00
2023-05-10T03:30:52.011Z,100059.75
2023-05-10T03:32:55.121Z,100058.00
2023-05-10T03:34:57.990Z,100054.53
2023-05-10T03:37:01.786Z,100051.09
2023-05-10T03:39:07.622Z,100049.38
2023-05-10T03:41:10.586Z,100051.97
2023-05-10T03:43:14.773Z,100050.22
2023-05-10T03:45:18.721Z,100058.94
2023-05-10T03:47:21.544Z,100057.19
2023-05-10T03:49:25.871Z,100044.97
2023-05-10T03:51:29.287Z,100051.09
2023-05-10T03:53:32.116Z,100053.72
2023-05-10T03:55:37.009Z,100060.66
2023-05-10T03:57:40.955Z,100056.38
2023-05-10T03:59:45.933Z,100054.66
2023-05-10T04:01:48.753Z,100065.13
2023-05-10T04:03:51.775Z,100064.28
2023-05-10T04:06:00.862Z,100073.03
2023-05-10T04:08:03.979Z,100073.97
2023-05-10T04:10:08.088Z,100073.97
2023-05-10T04:12:11.202Z,100076.56
2023-05-10T04:14:14.150Z,100075.69
2023-05-10T04:16:18.372Z,100078.31
2023-05-10T04:18:21.181Z,100078.31
2023-05-10T04:20:23.982Z,100082.72
2023-05-10T04:22:26.918Z,100084.47
2023-05-10T04:24:29.708Z,100085.34
2023-05-10T04:26:32.529Z,100087.09
2023-05-10T04:28:35.731Z,100088.81
2023-05-10T04:30:38.616Z,100090.56
2023-05-10T04:32:42.826Z,100090.56
2023-05-10T04:34:45.653Z,100088.78
2023-05-10T04:36:48.407Z,100089.72
2023-05-10T04:38:51.152Z,100087.97
2023-05-10T04:40:53.988Z,100087.09
2023-05-10T04:42:56.810Z,100090.56
2023-05-10T04:44:59.614Z,100092.34
2023-05-10T04:47:03.180Z,100102.81
2023-05-10T04:49:07.489Z,100104.56
2023-05-10T04:51:10.382Z,100108.09
2023-05-10T04:53:15.832Z,100104.56
2023-05-10T04:55:18.928Z,100101.13
2023-05-10T04:57:22.207Z,100103.72
2023-05-10T04:59:25.006Z,100100.19
2023-05-10T05:01:28.063Z,100096.66
2023-05-10T05:03:31.000Z,100092.34
2023-05-10T05:05:35.167Z,100093.19
2023-05-10T05:07:38.366Z,100105.41
2023-05-10T05:09:41.328Z,100109.78
2023-05-10T05:11:44.113Z,100111.50
2023-05-10T05:13:46.914Z,100100.13
2023-05-10T05:15:49.752Z,100109.72
2023-05-10T05:17:52.770Z,100114.06
2023-05-10T05:19:56.697Z,100114.03
2023-05-10T05:22:00.861Z,100114.91
2023-05-10T05:24:03.729Z,100118.38
2023-05-10T05:26:06.522Z,100115.75
2023-05-10T05:28:09.372Z,100122.72
2023-05-10T05:30:13.498Z,100125.31
2023-05-10T05:32:16.442Z,100124.44
2023-05-10T05:34:21.347Z,100125.34
2023-05-10T05:36:24.204Z,100130.50
2023-05-10T05:38:28.385Z,100120.88
2023-05-10T05:40:31.106Z,100130.50
2023-05-10T05:42:33.996Z,100123.47
2023-05-10T05:44:36.879Z,100133.94
2023-05-10T05:46:39.790Z,100140.00
2023-05-10T05:48:42.545Z,100133.81
2023-05-10T05:50:46.458Z,100132.09
2023-05-10T05:52:49.286Z,100135.59
2023-05-10T05:54:53.438Z,100140.84
2023-05-10T05:56:56.588Z,100139.97
2023-05-10T05:58:59.559Z,100145.16
2023-05-10T06:01:02.382Z,100146.03
2023-05-10T06:03:05.442Z,100151.25
2023-05-10T06:05:09.413Z,100157.31
2023-05-10T06:07:12.201Z,100156.47
2023-05-10T06:09:15.093Z,100157.28
2023-05-10T06:11:19.240Z,100166.81
2023-05-10T06:13:22.241Z,100164.25
2023-05-10T06:15:25.085Z,100166.91
2023-05-10T06:17:28.521Z,100165.13
2023-05-10T06:19:31.721Z,100170.28
2023-05-10T06:21:34.517Z,100167.69
2023-05-10T06:23:37.774Z,100173.75
2023-05-10T06:25:41.118Z,100174.59
2023-05-10T06:27:49.039Z,100175.47
2023-05-10T06:30:02.010Z,100177.22
2023-05-10T06:32:09.241Z,100182.44
2023-05-10T06:34:12.685Z,100186.81
2023-05-10T06:36:15.536Z,100175.41
2023-05-10T06:38:18.313Z,100178.00
2023-05-10T06:40:21.336Z,100190.19
2023-05-10T06:42:26.316Z,100177.97
2023-05-10T06:44:30.481Z,100174.47
2023-05-10T06:46:36.369Z,100179.56
2023-05-10T06:48:39.189Z,100173.47
2023-05-10T06:50:41.971Z,100190.91
2023-05-10T06:52:44.863Z,100183.13
2023-05-10T06:54:47.621Z,100183.94
2023-05-10T06:56:50.508Z,100183.03
2023-05-10T06:58:53.582Z,100191.81
2023-05-10T07:01:04.033Z,100179.56
2023-05-10T07:03:07.104Z,100184.75
2023-05-10T07:05:10.735Z,100184.69
2023-05-10T07:07:14.421Z,100187.25
2023-05-10T07:09:17.299Z,100183.59
2023-05-10T07:11:20.139Z,100179.97
2023-05-10T07:13:23.183Z,100173.91
2023-05-10T07:15:26.148Z,100181.69
2023-05-10T07:17:30.363Z,100187.75
2023-05-10T07:19:33.824Z,100183.56
2023-05-10T07:21:37.075Z,100189.63
2023-05-10T07:23:39.941Z,100191.34
2023-05-10T07:25:42.922Z,100178.97
2023-05-10T07:27:45.880Z,100185.06
2023-05-10T07:29:48.701Z,100182.34
2023-05-10T07:31:51.539Z,100190.16
2023-05-10T07:33:55.798Z,100179.59
2023-05-10T07:35:58.684Z,100193.59
2023-05-10T07:38:01.877Z,100195.44
2023-05-10T07:40:05.115Z,100201.44
2023-05-10T07:42:08.208Z,100194.31
2023-05-10T07:44:11.079Z,100204.03
2023-05-10T07:46:13.956Z,100205.72
2023-05-10T07:48:16.784Z,100202.13
2023-05-10T07:50:22.026Z,100209.06
2023-05-10T07:52:24.802Z,100203.75
2023-05-10T07:54:27.597Z,100202.94
2023-05-10T07:56:32.585Z,100202.03
2023-05-10T07:58:35.508Z,100204.66
2023-05-10T08:00:40.382Z,100199.41
2023-05-10T08:02:43.272Z,100202.13
2023-05-10T08:04:46.531Z,100211.69
2023-05-10T08:06:50.813Z,100201.41
2023-05-10T08:08:54.974Z,100200.59
2023-05-10T08:10:57.797Z,100204.06
2023-05-10T08:13:00.621Z,100205.78
2023-05-10T08:15:03.392Z,100203.97
2023-05-10T08:17:06.290Z,100206.56
2023-05-10T08:19:09.239Z,100203.03
2023-05-10T08:21:12.556Z,100208.13
2023-05-10T08:23:16.867Z,100197.53
2023-05-10T08:25:19.978Z,100206.19
2023-05-10T08:27:22.876Z,100202.69
2023-05-10T08:29:26.738Z,100206.19
2023-05-10T08:31:31.211Z,100207.97
2023-05-10T08:33:34.106Z,100214.09
2023-05-10T08:35:36.968Z,100209.78
2023-05-10T08:37:41.937Z,100212.53
2023-05-10T08:39:46.730Z,100216.19
2023-05-10T08:41:51.717Z,100214.47
2023-05-10T08:43:55.648Z,100218.13
2023-05-10T08:46:01.945Z,100222.50
2023-05-10T08:48:08.387Z,100224.22
2023-05-10T08:50:12.621Z,100225.09
2023-05-10T08:52:17.522Z,100221.59
2023-05-10T08:54:20.622Z,100230.38
2023-05-10T08:56:25.400Z,100226.91
2023-05-10T08:58:28.328Z,100231.25
2023-05-10T09:00:31.586Z,100232.22
2023-05-10T09:02:35.070Z,100230.50
2023-05-10T09:04:37.991Z,100240.13
2023-05-10T09:06:41.113Z,100240.91
2023-05-10T09:08:45.414Z,100242.78
2023-05-10T09:10:50.156Z,100245.47
2023-05-10T09:12:55.988Z,100236.75
2023-05-10T09:15:01.584Z,100243.72
2023-05-10T09:17:04.640Z,100242.78
2023-05-10T09:19:07.996Z,100253.16
2023-05-10T09:21:11.977Z,100250.41
2023-05-10T09:23:14.742Z,100251.16
2023-05-10T09:25:18.805Z,100247.53
2023-05-10T09:27:29.031Z,100244.00
2023-05-10T09:29:42.441Z,100250.00
2023-05-10T09:31:48.333Z,100244.63
2023-05-10T09:33:51.765Z,100239.28
2023-05-10T09:35:54.833Z,100248.09
2023-05-10T09:37:59.554Z,100260.41
2023-05-10T09:40:02.507Z,100263.97
2023-05-10T09:42:07.090Z,100257.00
2023-05-10T09:44:09.758Z,100263.41
2023-05-10T09:46:14.027Z,100259.19
2023-05-10T09:48:16.860Z,100261.78
2023-05-10T09:50:21.393Z,100268.81
2023-05-10T09:52:24.061Z,100257.50
2023-05-10T09:54:26.843Z,100268.75
2023-05-10T09:56:36.686Z,100267.75
2023-05-10T09:58:39.966Z,100266.97
2023-05-10T10:00:44.158Z,100270.47
2023-05-10T10:02:57.341Z,100281.84
2023-05-10T10:05:02.809Z,100279.28
2023-05-10T10:07:06.770Z,100282.78
2023-05-10T10:09:10.144Z,100277.59
2023-05-10T10:11:12.940Z,100284.56
2023-05-10T10:13:16.450Z,100279.16
2023-05-10T10:15:20.149Z,100281.72
2023-05-10T10:17:23.570Z,100280.78
2023-05-10T10:19:28.796Z,100283.31
2023-05-10T10:21:31.860Z,100283.44
2023-05-10T10:23:34.701Z,100277.25
2023-05-10T10:25:37.795Z,100280.03
2023-05-10T10:27:51.177Z,100280.94
2023-05-10T10:30:04.033Z,100279.16
2023-05-10T10:32:19.551Z,100288.66
2023-05-10T10:34:29.816Z,100290.31
2023-05-10T10:36:34.811Z,100277.03
2023-05-10T10:38:39.855Z,100274.28
2023-05-10T10:40:43.379Z,100274.97
2023-05-10T10:42:47.083Z,100279.19
2023-05-10T10:44:49.916Z,100275.53
2023-05-10T10:47:03.491Z,100282.41
2023-05-10T10:49:18.159Z,100276.03
2023-05-10T10:51:22.356Z,100266.94
2023-05-10T10:53:28.345Z,100271.75
2023-05-10T10:55:31.381Z,100264.34
2023-05-10T10:57:35.719Z,100263.38
2023-05-10T10:59:42.940Z,100257.09
2023-05-10T11:01:45.989Z,100263.78
2023-05-10T11:04:22.237Z,100256.03
2023-05-10T11:06:33.550Z,100265.19
2023-05-10T11:08:43.135Z,100269.47
2023-05-10T11:11:05.482Z,100267.06
2023-05-10T11:13:09.602Z,100272.31
2023-05-10T11:15:12.552Z,100274.94
2023-05-10T11:17:25.580Z,100278.19
2023-05-10T11:19:30.101Z,100273.69
2023-05-10T11:21:35.778Z,100285.25
2023-05-10T11:26:06.953Z,100286.13
2023-05-10T11:28:10.088Z,100283.59
2023-05-10T11:30:14.386Z,100285.25
2023-05-10T11:32:17.370Z,100277.28
2023-05-10T11:34:27.096Z,100286.16
2023-05-10T11:36:32.021Z,100286.13
2023-05-10T11:38:36.263Z,100277.47
2023-05-10T11:40:41.374Z,100280.88
2023-05-10T11:42:44.268Z,100282.56
2023-05-10T11:44:48.910Z,100278.16
2023-05-10T11:46:51.839Z,100289.53
2023-05-10T11:48:57.744Z,100285.84
2023-05-10T11:51:00.709Z,100282.00
2023-05-10T11:53:03.558Z,100288.94
2023-05-10T11:55:08.645Z,100281.00
2023-05-10T11:57:16.027Z,100287.94
2023-05-10T11:59:18.904Z,100290.47
2023-05-10T12:01:23.235Z,100290.66
2023-05-10T12:03:26.225Z,100287.31
2023-05-10T12:05:29.488Z,100292.16
2023-05-10T12:07:32.309Z,100293.91
2023-05-10T12:09:43.100Z,100290.38
2023-05-10T12:11:47.693Z,100284.84
2023-05-10T12:13:50.890Z,100293.66
2023-05-10T12:15:53.999Z,100298.75
2023-05-10T12:17:58.860Z,100299.53
2023-05-10T12:20:15.795Z,100303.91
2023-05-10T12:22:25.324Z,100299.59
2023-05-10T12:24:28.099Z,100296.94
2023-05-10T12:26:31.529Z,100297.72
2023-05-10T12:28:36.387Z,100305.72
2023-05-10T12:30:41.824Z,100308.47
2023-05-10T12:32:46.286Z,100303.72
2023-05-10T12:34:49.474Z,100302.72
2023-05-10T12:36:52.706Z,100309.72
2023-05-10T12:39:04.552Z,100308.06
2023-05-10T12:41:09.309Z,100313.31
2023-05-10T12:43:12.436Z,100307.16
2023-05-10T12:45:16.944Z,100309.59
2023-05-10T12:47:20.096Z,100309.41
2023-05-10T12:49:23.332Z,100316.50
2023-05-10T12:51:26.222Z,100317.13
2023-05-10T12:53:31.346Z,100316.19
2023-05-10T12:55:34.382Z,100320.03
2023-05-10T12:57:39.240Z,100320.81
2023-05-10T12:59:42.370Z,100315.34
2023-05-10T13:01:46.747Z,100317.91
2023-05-10T13:03:49.583Z,100316.09
2023-05-10T13:05:52.350Z,100314.97
2023-05-10T13:07:55.324Z,100306.22
2023-05-10T13:09:58.174Z,100317.75
2023-05-10T13:12:01.369Z,100317.94
2023-05-10T13:14:14.289Z,100311.19
2023-05-10T13:16:17.135Z,100313.09
2023-05-10T13:18:21.433Z,100310.25
2023-05-10T13:20:24.288Z,100316.47
2023-05-10T13:22:39.187Z,100307.75
2023-05-10T13:24:42.853Z,100309.50
2023-05-10T13:26:45.790Z,100302.28
2023-05-10T13:28:49.980Z,100297.66
2023-05-10T13:30:52.808Z,100310.88
2023-05-10T13:32:55.719Z,100308.47
2023-05-10T13:34:59.843Z,100307.91
2023-05-10T13:37:02.857Z,100306.00
2023-05-10T13:39:06.236Z,100307.41
2023-05-10T13:41:09.057Z,100306.69
2023-05-10T13:43:11.866Z,100304.97
2023-05-10T13:45:14.951Z,100305.88
2023-05-10T13:47:17.890Z,100312.81
2023-05-10T13:49:20.896Z,100303.94
2023-05-10T13:51:25.136Z,100308.44
2023-05-10T13:53:27.953Z,100304.69
2023-05-10T13:55:31.535Z,100305.22
2023-05-10T13:57:44.613Z,100294.00
2023-05-10T13:59:48.039Z,100292.38
2023-05-10T14:01:50.946Z,100295.94
2023-05-10T14:03:54.228Z,100295.78
2023-05-10T14:05:57.122Z,100287.66
2023-05-10T14:08:01.287Z,100286.97
2023-05-10T14:10:05.065Z,100290.56
2023-05-10T14:12:07.952Z,100286.41
2023-05-10T14:14:10.912Z,100294.13
2023-05-10T14:16:15.676Z,100289.81
2023-05-10T14:18:18.591Z,100286.94
2023-05-10T14:20:21.432Z,100294.50
2023-05-10T14:22:24.553Z,100285.19
2023-05-10T14:24:28.780Z,100270.69
2023-05-10T14:26:31.613Z,100278.38
2023-05-10T14:28:34.789Z,100285.94
2023-05-10T14:30:37.722Z,100277.88
2023-05-10T14:32:40.753Z,100274.19
2023-05-10T14:34:44.231Z,100274.09
2023-05-10T14:36:47.535Z,100276.44
2023-05-10T14:38:50.358Z,100276.44
2023-05-10T14:40:55.061Z,100272.84
2023-05-10T14:42:58.519Z,100276.94
2023-05-10T14:45:01.955Z,100269.88
2023-05-10T14:47:05.081Z,100274.50
2023-05-10T14:49:07.977Z,100271.88
2023-05-10T14:51:14.409Z,100276.94
2023-05-10T14:53:19.184Z,100274.34
2023-05-10T14:55:22.186Z,100274.56
2023-05-10T14:57:26.802Z,100280.63
2023-05-10T14:59:29.935Z,100275.91
2023-05-10T15:01:34.092Z,100270.47
2023-05-10T15:03:38.300Z,100265.38
2023-05-10T15:05:43.641Z,100271.47
2023-05-10T15:07:46.725Z,100271.13
2023-05-10T15:09:49.592Z,100271.66
2023-05-10T15:11:53.291Z,100271.59
2023-05-10T15:13:57.873Z,100275.97
2023-05-10T15:16:03.702Z,100276.63
2023-05-10T15:18:07.834Z,100274.81
2023-05-10T15:20:11.276Z,100267.69
2023-05-10T15:22:14.165Z,100267.88
2023-05-10T15:24:17.803Z,100261.84
2023-05-10T15:26:20.532Z,100268.88
2023-05-10T15:28:23.618Z,100266.41
2023-05-10T15:30:28.039Z,100270.81
2023-05-10T15:32:31.149Z,100260.06
2023-05-10T15:34:37.014Z,100256.44
2023-05-10T15:36:40.443Z,100260.03
2023-05-10T15:38:43.797Z,100256.53
2023-05-10T15:40:46.655Z,100261.94
2023-05-10T15:42:49.495Z,100270.41
2023-05-10T15:44:52.301Z,100264.19
2023-05-10T15:46:56.753Z,100263.09
2023-05-10T15:49:00.140Z,100263.09
2023-05-10T15:51:03.001Z,100265.81
2023-05-10T15:53:05.780Z,100267.88
2023-05-10T15:55:13.100Z,100272.34
2023-05-10T15:57:16.564Z,100266.31
2023-05-10T15:59:19.353Z,100264.91
2023-05-10T16:01:22.256Z,100270.47
2023-05-10T16:03:26.604Z,100268.75
2023-05-10T16:05:32.558Z,100274.94
2023-05-10T16:07:35.482Z,100273.88
2023-05-10T16:09:38.253Z,100277.50
2023-05-10T16:11:41.936Z,100272.91
2023-05-10T16:13:44.740Z,100276.47
2023-05-10T16:15:47.471Z,100273.72
2023-05-10T16:17:50.582Z,100286.00
2023-05-10T16:19:55.025Z,100278.22
2023-05-10T16:21:57.971Z,100279.38
2023-05-10T16:24:04.718Z,100271.66
2023-05-10T16:26:07.566Z,100274.56
2023-05-10T16:28:10.758Z,100277.22
2023-05-10T16:30:14.217Z,100276.69
2023-05-10T16:32:17.201Z,100274.34
2023-05-10T16:34:24.047Z,100278.53
2023-05-10T16:36:29.586Z,100273.13
2023-05-10T16:38:32.566Z,100272.03
2023-05-10T16:40:35.395Z,100271.16
2023-05-10T16:42:38.237Z,100271.13
2023-05-10T16:44:41.333Z,100272.06
2023-05-10T16:46:44.734Z,100271.50
2023-05-10T16:48:47.621Z,100274.09
2023-05-10T16:50:50.473Z,100277.53
2023-05-10T16:52:54.752Z,100281.06
2023-05-10T16:54:57.575Z,100285.50
2023-05-10T16:57:01.164Z,100282.03
2023-05-10T16:59:04.008Z,100286.47
2023-05-10T17:01:07.210Z,100295.28
2023-05-10T17:03:10.219Z,100286.47
2023-05-10T17:05:13.214Z,100290.75
2023-05-10T17:07:16.322Z,100289.88
2023-05-10T17:09:21.116Z,100289.13
2023-05-10T17:11:24.043Z,100290.00
2023-05-10T17:13:26.895Z,100288.31
2023-05-10T17:15:30.008Z,100297.06
2023-05-10T17:17:32.879Z,100294.50
2023-05-10T17:19:36.166Z,100298.94
2023-05-10T17:21:38.919Z,100299.00
2023-05-10T17:23:41.660Z,100301.69
2023-05-10T17:25:45.748Z,100302.63
2023-05-10T17:27:48.565Z,100299.50
2023-05-10T17:29:51.407Z,100311.00
2023-05-10T17:31:54.186Z,100302.34
2023-05-10T17:33:57.189Z,100298.97
2023-05-10T17:36:03.766Z,100311.19
2023-05-10T17:38:07.001Z,100307.81
2023-05-10T17:40:11.276Z,100312.47
2023-05-10T17:42:17.467Z,100313.34
2023-05-10T17:44:20.483Z,100317.94
2023-05-10T17:46:23.716Z,100311.91
2023-05-10T17:48:26.616Z,100315.34
2023-05-10T17:50:29.418Z,100310.06
2023-05-10T17:52:33.576Z,100312.88
2023-05-10T17:54:36.601Z,100317.31
2023-05-10T17:56:39.421Z,100317.22
2023-05-10T17:58:43.566Z,100311.25
2023-05-10T18:00:46.567Z,100306.88
2023-05-10T18:02:49.397Z,100319.91
2023-05-10T18:04:52.402Z,100318.22
2023-05-10T18:07:01.079Z,100314.78
2023-05-10T18:09:04.794Z,100315.66
2023-05-10T18:11:07.705Z,100322.72
2023-05-10T18:13:10.456Z,100324.50
2023-05-10T18:15:14.887Z,100323.63
2023-05-10T18:17:17.908Z,100323.81
2023-05-10T18:19:22.282Z,100323.84
2023-05-10T18:21:25.082Z,100323.91
2023-05-10T18:23:27.899Z,100321.34
2023-05-10T18:25:31.070Z,100324.75
2023-05-10T18:27:34.359Z,100323.16
2023-05-10T18:29:37.711Z,100320.66
2023-05-10T18:31:42.008Z,100327.56
2023-05-10T18:33:45.911Z,100326.84
2023-05-10T18:35:48.783Z,100330.47
2023-05-10T18:37:53.143Z,100333.94
2023-05-10T18:39:56.254Z,100326.91
2023-05-10T18:41:59.070Z,100335.59
2023-05-10T18:44:01.843Z,100332.13
2023-05-10T18:46:04.807Z,100332.16
2023-05-10T18:48:09.053Z,100334.75
2023-05-10T18:50:13.012Z,100332.28
2023-05-10T18:52:16.128Z,100326.19
2023-05-10T18:54:19.006Z,100329.09
2023-05-10T18:56:22.404Z,100337.94
2023-05-10T18:58:25.666Z,100341.50
2023-05-10T19:00:28.715Z,100339.00
2023-05-10T19:02:31.541Z,100344.28
2023-05-10T19:04:35.762Z,100339.28
2023-05-10T19:06:38.574Z,100344.59
2023-05-10T19:08:41.426Z,100350.69
2023-05-10T19:10:45.754Z,100349.91
2023-05-10T19:12:48.658Z,100361.44
2023-05-10T19:14:51.486Z,100359.78
2023-05-10T19:16:54.577Z,100360.69
2023-05-10T19:18:57.451Z,100367.69
2023-05-10T19:21:03.543Z,100361.44
2023-05-10T19:23:10.085Z,100365.81
2023-05-10T19:25:14.079Z,100369.44
2023-05-10T19:27:17.035Z,100372.03
2023-05-10T19:29:19.899Z,100374.72
2023-05-10T19:31:23.276Z,100376.47
2023-05-10T19:33:26.136Z,100379.13
2023-05-10T19:35:29.069Z,100381.75
2023-05-10T19:37:33.187Z,100384.44
2023-05-10T19:39:36.041Z,100382.78
2023-05-10T19:41:38.852Z,100389.78
2023-05-10T19:43:42.635Z,100392.44
2023-05-10T19:45:45.560Z,100396.06
2023-05-10T19:47:48.487Z,100387.31
2023-05-10T19:49:51.412Z,100396.91
2023-05-10T19:51:54.234Z,100396.84
2023-05-10T19:53:58.446Z,100395.13
2023-05-10T19:56:06.179Z,100401.22
2023-05-10T19:58:09.197Z,100397.75
2023-05-10T20:00:13.175Z,100395.09
2023-05-10T20:02:15.946Z,100399.50
2023-05-10T20:04:18.710Z,100401.34
2023-05-10T20:06:21.564Z,100398.69
2023-05-10T20:08:24.400Z,100402.22
2023-05-10T20:10:28.575Z,100402.28
2023-05-10T20:12:33.559Z,100404.00
2023-05-10T20:14:36.414Z,100411.88
2023-05-10T20:16:39.279Z,100408.38
2023-05-10T20:18:42.153Z,100409.22
2023-05-10T20:20:46.118Z,100416.19
2023-05-10T20:22:49.652Z,100417.09
2023-05-10T20:24:54.377Z,100412.69
2023-05-10T20:27:00.426Z,100423.19
2023-05-10T20:29:03.743Z,100416.22
2023-05-10T20:31:06.614Z,100409.19
2023-05-10T20:33:09.645Z,100416.22
2023-05-10T20:35:12.590Z,100419.75
2023-05-10T20:37:18.200Z,100418.88
2023-05-10T20:39:21.357Z,100414.56
2023-05-10T20:41:24.727Z,100417.22
2023-05-10T20:43:29.218Z,100423.34
2023-05-10T20:45:32.020Z,100423.38
2023-05-10T20:47:34.990Z,100423.38
2023-05-10T20:49:38.013Z,100421.69
2023-05-10T20:51:40.867Z,100419.09
2023-05-10T20:53:43.679Z,100415.63
2023-05-10T20:55:46.426Z,100414.78
2023-05-10T20:57:49.221Z,100413.03
2023-05-10T20:59:53.688Z,100418.31
2023-05-10T21:01:58.036Z,100416.66
2023-05-10T21:04:00.920Z,100419.31
2023-05-10T21:06:03.825Z,100426.31
2023-05-10T21:08:07.273Z,100422.84
2023-05-10T21:10:12.240Z,100409.75
2023-05-10T21:12:15.155Z,100415.88
2023-05-10T21:14:18.038Z,100421.16
2023-05-10T21:16:22.265Z,100421.16
2023-05-10T21:18:25.340Z,100416.81
2023-05-10T21:20:28.226Z,100414.22
2023-05-10T21:22:31.002Z,100411.63
2023-05-10T21:24:35.010Z,100408.13
2023-05-10T21:26:38.009Z,100410.78
2023-05-10T21:28:42.335Z,100410.78
2023-05-10T21:30:45.139Z,100407.31
2023-05-10T21:32:49.271Z,100413.47
2023-05-10T21:34:52.074Z,100408.25
2023-05-10T21:36:55.439Z,100410.88
2023-05-10T21:38:58.427Z,100408.28
2023-05-10T21:41:01.969Z,100411.78
2023-05-10T21:43:04.775Z,100405.72
2023-05-10T21:45:08.536Z,100410.09
2023-05-10T21:47:11.403Z,100404.84
2023-05-10T21:49:15.550Z,100403.09
2023-05-10T21:51:18.349Z,100406.59
2023-05-10T21:53:22.326Z,100407.47
2023-05-10T21:55:25.486Z,100403.13
2023-05-10T21:57:28.392Z,100408.38
2023-05-10T21:59:31.155Z,100397.91
2023-05-10T22:01:34.039Z,100405.78
2023-05-10T22:03:36.984Z,100401.41
2023-05-10T22:05:41.217Z,100404.03
2023-05-10T22:07:44.054Z,100404.06
2023-05-10T22:09:46.858Z,100402.31
2023-05-10T22:11:52.409Z,100400.59
2023-05-10T22:13:55.217Z,100407.56
2023-05-10T22:15:58.033Z,100414.56
2023-05-10T22:18:00.913Z,100405.84
2023-05-10T22:20:03.709Z,100406.72
2023-05-10T22:22:07.856Z,100405.00
2023-05-10T22:24:10.666Z,100409.34
2023-05-10T22:26:13.480Z,100409.38
2023-05-10T22:28:16.362Z,100408.50
2023-05-10T22:30:19.828Z,100415.44
2023-05-10T22:32:22.894Z,100418.97
2023-05-10T22:34:25.778Z,100415.50
2023-05-10T22:36:28.968Z,100415.50
2023-05-10T22:38:33.248Z,100418.97
2023-05-10T22:40:36.091Z,100419.88
2023-05-10T22:42:39.020Z,100416.38
2023-05-10T22:44:41.847Z,100419.88
2023-05-10T22:46:44.811Z,100418.97
2023-05-10T22:48:48.008Z,100423.38
2023-05-10T22:50:50.903Z,100426.00
2023-05-10T22:52:53.721Z,100429.47
2023-05-10T22:54:58.079Z,100427.72
2023-05-10T22:57:00.904Z,100427.72
2023-05-10T22:59:03.765Z,100431.19
2023-05-10T23:01:06.632Z,100436.44
2023-05-10T23:03:09.636Z,100432.09
2023-05-10T23:05:13.148Z,100427.75
2023-05-10T23:07:15.982Z,100433.84
2023-05-10T23:09:18.772Z,100432.09
2023-05-10T23:11:22.878Z,100434.72
2023-05-10T23:13:25.709Z,100432.09
2023-05-10T23:15:28.448Z,100433.00
2023-05-10T23:17:31.350Z,100431.25
2023-05-10T23:19:34.443Z,100439.97
2023-05-10T23:21:37.162Z,100434.75
2023-05-10T23:23:40.031Z,100439.13
2023-05-10T23:25:42.837Z,100440.00
2023-05-10T23:27:46.961Z,100433.88
2023-05-10T23:29:52.249Z,100437.38
2023-05-10T23:31:55.052Z,100438.25
2023-05-10T23:33:57.915Z,100438.25
2023-05-10T23:36:00.860Z,100444.34
2023-05-10T23:38:03.694Z,100445.22
2023-05-10T23:40:08.064Z,100444.34
2023-05-10T23:42:10.880Z,100451.31